createdAt,value
2023-05-19T00:02:26.039Z,16.08
2023-05-19T00:04:53.341Z,12.57
2023-05-19T00:07:26.043Z,13.98
2023-05-19T00:09:52.997Z,16.08
2023-05-19T00:12:20.040Z,11.60
2023-05-19T00:14:46.960Z,19.23
2023-05-19T00:17:14.364Z,12.73
2023-05-19T00:19:41.178Z,11.90
2023-05-19T00:22:07.887Z,11.75
2023-05-19T00:24:34.831Z,12.55
2023-05-19T00:27:01.557Z,12.05
2023-05-19T00:29:29.308Z,11.25
2023-05-19T00:31:56.862Z,12.43
2023-05-19T00:34:23.690Z,13.27
2023-05-19T00:36:50.759Z,15.75
2023-05-19T00:39:17.612Z,12.95
2023-05-19T00:41:44.357Z,13.40
2023-05-19T00:44:11.451Z,12.13
2023-05-19T00:46:38.244Z,10.35
2023-05-19T00:49:05.075Z,14.10
2023-05-19T00:51:32.093Z,19.25
2023-05-19T00:53:58.936Z,13.55
2023-05-19T00:56:26.531Z,11.77
2023-05-19T00:58:54.826Z,9.50
2023-05-19T01:01:22.394Z,13.95
2023-05-19T01:03:49.644Z,18.77
2023-05-19T01:06:19.109Z,11.35
2023-05-19T01:08:46.430Z,9.57
2023-05-19T01:11:13.252Z,15.20
2023-05-19T01:13:42.098Z,10.57
2023-05-19T01:16:33.578Z,9.90
2023-05-19T01:19:25.498Z,12.70
2023-05-19T01:22:36.521Z,8.85
2023-05-19T01:25:40.107Z,9.18
2023-05-19T01:28:38.715Z,13.13
2023-05-19T01:31:08.968Z,15.18
2023-05-19T01:33:37.834Z,13.90
2023-05-19T01:36:07.677Z,13.63
2023-05-19T01:38:37.585Z,11.18
2023-05-19T01:41:06.416Z,11.93
2023-05-19T01:43:34.148Z,14.70
2023-05-19T01:46:02.374Z,12.90
2023-05-19T01:48:30.529Z,12.65
2023-05-19T01:50:57.394Z,12.70
2023-05-19T01:53:25.672Z,15.23
2023-05-19T01:55:57.136Z,13.15
2023-05-19T01:58:46.998Z,13.95
2023-05-19T02:01:35.568Z,10.35
2023-05-19T02:04:20.200Z,15.57
2023-05-19T02:07:05.327Z,10.70
2023-05-19T02:09:40.614Z,17.80
2023-05-19T02:12:30.579Z,14.50
2023-05-19T02:15:10.817Z,14.30
2023-05-19T02:17:48.316Z,11.95
2023-05-19T02:20:18.649Z,13.75
2023-05-19T02:22:45.575Z,11.25
2023-05-19T02:25:12.335Z,11.57
2023-05-19T02:27:40.102Z,12.90
2023-05-19T02:30:08.305Z,12.98
2023-05-19T02:32:36.443Z,12.45
2023-05-19T02:35:04.032Z,15.15
2023-05-19T02:37:31.153Z,14.27
2023-05-19T02:39:58.332Z,15.77
2023-05-19T02:42:25.043Z,17.05
2023-05-19T02:44:52.415Z,13.20
2023-05-19T02:47:19.205Z,13.43
2023-05-19T02:49:46.064Z,16.27
2023-05-19T02:52:12.785Z,15.45
2023-05-19T02:54:39.518Z,17.30
2023-05-19T02:57:06.836Z,16.52
2023-05-19T02:59:33.861Z,15.18
2023-05-19T03:02:01.965Z,14.18
2023-05-19T03:04:29.848Z,18.63
2023-05-19T03:06:57.707Z,16.95
2023-05-19T03:09:24.557Z,15.90
2023-05-19T03:11:51.321Z,16.95
2023-05-19T03:14:18.611Z,14.93
2023-05-19T03:16:45.791Z,15.98
2023-05-19T03:19:12.819Z,14.80
2023-05-19T03:21:39.560Z,15.55
2023-05-19T03:24:07.100Z,16.50
2023-05-19T03:26:33.881Z,17.88
2023-05-19T03:29:01.037Z,19.00
2023-05-19T03:31:28.389Z,15.75
2023-05-19T03:33:55.127Z,17.23
2023-05-19T03:36:22.191Z,16.50
2023-05-19T03:38:49.354Z,15.38
2023-05-19T03:41:16.215Z,17.88
2023-05-19T03:43:42.977Z,17.90
2023-05-19T03:46:09.845Z,17.40
2023-05-19T03:48:36.614Z,19.15
2023-05-19T03:51:04.439Z,16.23
2023-05-19T03:53:31.214Z,20.13
2023-05-19T03:55:57.941Z,17.02
2023-05-19T03:58:24.934Z,17.45
2023-05-19T04:00:51.778Z,16.67
2023-05-19T04:03:18.640Z,17.23
2023-05-19T04:05:45.465Z,17.50
2023-05-19T04:08:12.323Z,17.92
2023-05-19T04:10:39.020Z,18.00
2023-05-19T04:13:05.821Z,17.92
2023-05-19T04:15:32.702Z,19.65
2023-05-19T04:17:59.493Z,16.67
2023-05-19T04:20:26.236Z,17.30
2023-05-19T04:22:52.989Z,19.35
2023-05-19T04:25:20.221Z,20.55
2023-05-19T04:27:48.323Z,18.02
2023-05-19T04:30:22.059Z,16.23
2023-05-19T04:32:52.118Z,17.75
2023-05-19T04:35:19.516Z,15.80
2023-05-19T04:37:46.408Z,17.67
2023-05-19T04:40:13.619Z,16.88
2023-05-19T04:42:41.543Z,19.25
2023-05-19T04:45:09.610Z,18.13
2023-05-19T04:47:38.071Z,17.63
2023-05-19T04:50:05.523Z,18.50
2023-05-19T04:52:32.273Z,15.75
2023-05-19T04:55:00.225Z,16.85
2023-05-19T04:57:27.102Z,16.05
2023-05-19T04:59:59.763Z,16.42
2023-05-19T05:02:29.765Z,17.05
2023-05-19T05:04:56.731Z,17.83
2023-05-19T05:07:24.070Z,17.00
2023-05-19T05:09:51.185Z,22.73
2023-05-19T05:12:19.021Z,14.80
2023-05-19T05:14:46.014Z,15.93
2023-05-19T05:17:13.810Z,17.08
2023-05-19T05:19:41.084Z,15.65
2023-05-19T05:22:08.188Z,15.52
2023-05-19T05:24:35.313Z,21.13
2023-05-19T05:27:02.046Z,23.75
2023-05-19T05:29:28.846Z,19.08
2023-05-19T05:31:55.628Z,18.13
2023-05-19T05:34:22.671Z,18.50
2023-05-19T05:36:49.483Z,21.30
2023-05-19T05:39:16.293Z,19.55
2023-05-19T05:41:43.006Z,20.23
2023-05-19T05:44:09.865Z,20.73
2023-05-19T05:46:39.168Z,20.38
2023-05-19T05:49:06.488Z,15.52
2023-05-19T05:51:33.794Z,19.38
2023-05-19T05:54:01.659Z,16.95
2023-05-19T05:56:28.677Z,23.88
2023-05-19T05:58:55.404Z,19.33
2023-05-19T06:01:23.952Z,20.35
2023-05-19T06:03:51.098Z,22.38
2023-05-19T06:06:17.846Z,17.58
2023-05-19T06:08:44.611Z,18.10
2023-05-19T06:11:11.437Z,21.70
2023-05-19T06:13:41.190Z,21.27
2023-05-19T06:16:09.506Z,20.85
2023-05-19T06:18:36.510Z,18.85
2023-05-19T06:21:03.472Z,18.92
2023-05-19T06:23:33.329Z,20.60
2023-05-19T06:26:00.125Z,19.55
2023-05-19T06:28:26.827Z,16.17
2023-05-19T06:30:53.728Z,18.90
2023-05-19T06:33:20.541Z,19.05
2023-05-19T06:35:47.227Z,23.38
2023-05-19T06:38:13.994Z,22.45
2023-05-19T06:40:41.005Z,22.55
2023-05-19T06:43:07.784Z,18.75
2023-05-19T06:45:34.973Z,18.08
2023-05-19T06:48:02.093Z,17.15
2023-05-19T06:50:28.930Z,20.33
2023-05-19T06:52:57.376Z,23.45
2023-05-19T06:55:24.397Z,22.65
2023-05-19T06:57:51.152Z,19.83
2023-05-19T07:00:20.480Z,18.48
2023-05-19T07:02:48.885Z,18.50
2023-05-19T07:05:15.663Z,21.75
2023-05-19T07:07:43.345Z,20.70
2023-05-19T07:10:10.792Z,17.70
2023-05-19T07:12:37.536Z,17.83
2023-05-19T07:15:04.781Z,18.67
2023-05-19T07:17:31.623Z,19.88
2023-05-19T07:19:58.462Z,17.42
2023-05-19T07:22:25.377Z,16.23
2023-05-19T07:24:52.154Z,19.75
2023-05-19T07:27:19.170Z,17.92
2023-05-19T07:29:45.924Z,22.23
2023-05-19T07:32:12.801Z,17.55
2023-05-19T07:34:40.955Z,19.83
2023-05-19T07:37:07.758Z,18.33
2023-05-19T07:39:35.623Z,15.27
2023-05-19T07:42:02.488Z,15.90
2023-05-19T07:44:31.362Z,17.70
2023-05-19T07:46:58.106Z,12.73
2023-05-19T07:49:24.940Z,16.13
2023-05-19T07:51:51.923Z,15.77
2023-05-19T07:54:18.935Z,17.05
2023-05-19T07:56:45.772Z,14.90
2023-05-19T07:59:13.250Z,15.63
2023-05-19T08:01:40.181Z,13.88
2023-05-19T08:04:08.065Z,17.40
2023-05-19T08:06:35.992Z,14.73
2023-05-19T08:09:03.693Z,17.10
2023-05-19T08:11:30.403Z,13.20
2023-05-19T08:13:57.485Z,16.02
2023-05-19T08:16:24.574Z,16.73
2023-05-19T08:18:51.765Z,15.95
2023-05-19T08:21:18.532Z,15.18
2023-05-19T08:23:45.569Z,13.98
2023-05-19T08:26:12.274Z,15.18
2023-05-19T08:28:39.297Z,18.05
2023-05-19T08:31:06.288Z,15.93
2023-05-19T08:33:33.200Z,18.60
2023-05-19T08:36:00.012Z,17.60
2023-05-19T08:38:26.993Z,19.05
2023-05-19T08:40:53.944Z,14.80
2023-05-19T08:43:20.817Z,20.05
2023-05-19T08:45:48.269Z,12.38
2023-05-19T08:48:17.345Z,15.35
2023-05-19T08:50:53.102Z,17.13
2023-05-19T08:53:33.111Z,13.60
2023-05-19T08:56:33.783Z,14.95
2023-05-19T08:59:02.036Z,15.03
2023-05-19T09:01:30.365Z,12.93
2023-05-19T09:03:58.109Z,10.98
2023-05-19T09:06:26.409Z,11.45
2023-05-19T09:08:53.356Z,15.13
2023-05-19T09:11:20.140Z,14.75
2023-05-19T09:13:47.013Z,12.38
2023-05-19T09:16:14.064Z,13.98
2023-05-19T09:18:40.986Z,14.68
2023-05-19T09:21:10.216Z,14.85
2023-05-19T09:23:37.439Z,16.30
2023-05-19T09:26:07.708Z,17.38
2023-05-19T09:28:36.617Z,17.48
2023-05-19T09:31:10.898Z,15.95
2023-05-19T09:33:39.348Z,19.10
2023-05-19T09:36:08.417Z,14.80
2023-05-19T09:38:36.367Z,14.25
2023-05-19T09:41:06.666Z,17.55
2023-05-19T09:43:35.020Z,15.75
2023-05-19T09:46:08.610Z,15.02
2023-05-19T09:48:36.681Z,20.30
2023-05-19T09:51:05.320Z,19.23
2023-05-19T09:53:35.095Z,18.00
2023-05-19T09:56:03.633Z,18.85
2023-05-19T09:58:37.386Z,17.13
2023-05-19T10:01:05.749Z,19.33
2023-05-19T10:03:33.887Z,17.42
2023-05-19T10:06:02.236Z,16.80
2023-05-19T10:08:30.929Z,18.17
2023-05-19T10:10:58.347Z,17.05
2023-05-19T10:13:25.888Z,20.17
2023-05-19T10:18:25.113Z,20.48
2023-05-19T10:20:52.687Z,18.02
2023-05-19T10:23:19.583Z,14.35
2023-05-19T10:25:47.829Z,18.85
2023-05-19T10:28:18.469Z,16.70
2023-05-19T10:30:49.511Z,17.58
2023-05-19T10:33:18.843Z,22.50
2023-05-19T10:36:08.348Z,16.87
2023-05-19T10:39:09.169Z,18.30
2023-05-19T10:41:50.953Z,24.38
2023-05-19T10:44:43.962Z,18.83
2023-05-19T10:47:14.267Z,15.95
2023-05-19T10:52:23.906Z,17.40
2023-05-19T10:54:51.386Z,19.05
2023-05-19T10:57:19.808Z,21.02
2023-05-19T10:59:47.269Z,15.00
2023-05-19T11:02:43.275Z,17.00
2023-05-19T11:05:14.503Z,17.48
2023-05-19T11:07:46.164Z,20.35
2023-05-19T11:10:13.250Z,18.67
2023-05-19T11:12:45.545Z,18.77
2023-05-19T11:15:16.807Z,20.83
2023-05-19T11:17:48.487Z,19.10
2023-05-19T11:20:25.919Z,20.33
2023-05-19T11:23:08.477Z,22.00
2023-05-19T11:25:49.083Z,17.55
2023-05-19T11:28:19.224Z,16.17
2023-05-19T11:30:50.737Z,17.52
2023-05-19T11:33:19.501Z,19.60
2023-05-19T11:35:49.371Z,19.95
2023-05-19T11:38:18.751Z,19.15
2023-05-19T11:40:47.184Z,19.67
2023-05-19T11:43:14.060Z,17.10
2023-05-19T11:45:40.892Z,19.95
2023-05-19T11:48:12.572Z,20.55
2023-05-19T11:50:42.340Z,18.63
2023-05-19T11:53:13.030Z,19.33
2023-05-19T11:55:46.754Z,21.00
2023-05-19T11:58:13.921Z,21.13
2023-05-19T12:00:45.848Z,18.08
2023-05-19T12:03:13.276Z,22.85
2023-05-19T12:05:44.515Z,31.08
2023-05-19T12:08:12.343Z,20.40
2023-05-19T12:10:40.055Z,18.45
2023-05-19T12:13:10.722Z,23.85
2023-05-19T12:15:38.035Z,21.50
2023-05-19T12:18:04.816Z,20.52
2023-05-19T12:20:32.653Z,19.23
2023-05-19T12:23:01.644Z,22.55
2023-05-19T12:25:29.823Z,23.63
2023-05-19T12:28:00.976Z,20.17
2023-05-19T12:30:31.427Z,22.20
2023-05-19T12:32:58.599Z,25.00
2023-05-19T12:35:30.109Z,21.20
2023-05-19T12:37:57.737Z,19.58
2023-05-19T12:40:26.110Z,23.27
2023-05-19T12:42:59.112Z,21.27
2023-05-19T12:45:28.418Z,21.92
2023-05-19T12:47:56.199Z,22.23
2023-05-19T12:50:30.894Z,19.95
2023-05-19T12:52:59.653Z,21.88
2023-05-19T12:55:26.662Z,20.83
2023-05-19T12:57:59.693Z,21.23
2023-05-19T13:00:31.012Z,25.77
2023-05-19T13:03:09.860Z,23.10
2023-05-19T13:05:39.060Z,21.67
2023-05-19T13:08:06.744Z,22.80
2023-05-19T13:10:34.867Z,24.10
2023-05-19T13:13:02.486Z,21.90
2023-05-19T13:15:32.047Z,28.70
2023-05-19T13:18:00.020Z,22.23
2023-05-19T13:20:28.513Z,25.20
2023-05-19T13:22:56.068Z,23.73
2023-05-19T13:25:22.890Z,23.17
2023-05-19T13:27:49.942Z,25.95
2023-05-19T13:30:17.334Z,23.38
2023-05-19T13:32:45.033Z,22.88
2023-05-19T13:35:13.128Z,23.25
2023-05-19T13:37:41.994Z,25.13
2023-05-19T13:40:09.698Z,23.45
2023-05-19T13:42:36.601Z,24.05
2023-05-19T13:45:04.186Z,23.92
2023-05-19T13:47:31.161Z,23.80
2023-05-19T13:49:57.966Z,26.80
2023-05-19T13:52:25.610Z,22.13
2023-05-19T13:54:56.911Z,21.98
2023-05-19T13:57:24.169Z,24.55
2023-05-19T14:00:01.879Z,23.88
2023-05-19T14:02:30.703Z,23.63
2023-05-19T14:04:57.935Z,23.98
2023-05-19T14:07:25.532Z,26.05
2023-05-19T14:09:52.777Z,24.83
2023-05-19T14:12:23.259Z,25.08
2023-05-19T14:14:52.188Z,22.70
2023-05-19T14:17:19.067Z,28.65
2023-05-19T14:19:45.926Z,26.35
2023-05-19T14:22:13.363Z,24.67
2023-05-19T14:24:41.504Z,30.30
2023-05-19T14:27:08.312Z,29.75
2023-05-19T14:29:35.389Z,25.80
2023-05-19T14:32:03.344Z,24.48
2023-05-19T14:34:30.661Z,22.08
2023-05-19T14:36:57.828Z,23.73
2023-05-19T14:39:24.573Z,25.85
2023-05-19T14:41:52.828Z,20.20
2023-05-19T14:44:19.555Z,23.38
2023-05-19T14:46:46.316Z,25.75
2023-05-19T14:49:13.077Z,26.50
2023-05-19T14:51:40.034Z,25.08
2023-05-19T14:54:06.799Z,22.38
2023-05-19T14:56:33.554Z,22.25
2023-05-19T14:59:00.386Z,25.83
2023-05-19T15:01:27.204Z,26.33
2023-05-19T15:03:54.199Z,28.70
2023-05-19T15:06:21.353Z,26.40
2023-05-19T15:08:49.569Z,25.33
2023-05-19T15:11:16.289Z,25.52
2023-05-19T15:13:43.005Z,23.60
2023-05-19T15:16:17.598Z,28.27
2023-05-19T15:18:45.389Z,24.08
2023-05-19T15:21:12.467Z,24.00
2023-05-19T15:23:39.468Z,24.83
2023-05-19T15:26:06.763Z,24.38
2023-05-19T15:28:34.371Z,27.23
2023-05-19T15:31:01.376Z,25.20
2023-05-19T15:33:28.296Z,26.70
2023-05-19T15:35:55.411Z,24.00
2023-05-19T15:38:22.351Z,24.92
2023-05-19T15:40:49.324Z,27.15
2023-05-19T15:43:20.832Z,23.75
2023-05-19T15:45:54.614Z,26.73
2023-05-19T15:48:22.237Z,27.83
2023-05-19T15:50:49.135Z,32.25
2023-05-19T15:53:17.536Z,25.52
2023-05-19T15:55:44.687Z,32.05
2023-05-19T15:58:11.707Z,28.75
2023-05-19T16:00:38.832Z,24.23
2023-05-19T16:03:06.978Z,24.67
2023-05-19T16:05:33.917Z,25.50
2023-05-19T16:08:12.440Z,27.33
2023-05-19T16:10:39.268Z,25.88
2023-05-19T16:13:15.075Z,26.20
2023-05-19T16:15:43.152Z,30.73
2023-05-19T16:18:10.706Z,27.63
2023-05-19T16:20:47.955Z,27.77
2023-05-19T16:23:17.662Z,27.48
2023-05-19T16:25:44.502Z,24.15
2023-05-19T16:28:16.328Z,23.90
2023-05-19T16:30:47.444Z,23.52
2023-05-19T16:33:17.039Z,24.88
2023-05-19T16:35:47.168Z,26.15
2023-05-19T16:38:42.881Z,25.50
2023-05-19T16:41:16.040Z,23.25
2023-05-19T16:43:43.004Z,28.02
2023-05-19T16:46:12.355Z,27.15
2023-05-19T16:48:41.822Z,30.80
2023-05-19T16:51:08.575Z,29.95
2023-05-19T16:53:42.595Z,23.10
2023-05-19T16:56:09.563Z,24.35
2023-05-19T16:58:36.376Z,25.05
2023-05-19T17:01:04.018Z,31.02
2023-05-19T17:03:31.974Z,30.55
2023-05-19T17:06:00.911Z,31.70
2023-05-19T17:08:28.076Z,33.80
2023-05-19T17:10:58.708Z,35.80
2023-05-19T17:13:25.560Z,30.98
2023-05-19T17:15:52.706Z,24.50
2023-05-19T17:18:21.631Z,27.65
2023-05-19T17:20:51.041Z,24.90
2023-05-19T17:23:26.243Z,27.33
2023-05-19T17:25:56.869Z,24.30
2023-05-19T17:28:25.444Z,31.80
2023-05-19T17:30:57.847Z,33.55
2023-05-19T17:33:25.194Z,30.20
2023-05-19T17:35:52.212Z,42.25
2023-05-19T17:38:19.179Z,52.03
2023-05-19T17:40:46.774Z,65.18
2023-05-19T17:43:19.453Z,92.20
2023-05-19T17:45:47.283Z,81.32
2023-05-19T17:48:32.428Z,38.00
2023-05-19T17:51:08.049Z,34.38
2023-05-19T17:53:45.737Z,49.92
2023-05-19T17:56:17.627Z,34.10
2023-05-19T17:58:46.634Z,38.92
2023-05-19T18:01:15.959Z,41.28
2023-05-19T18:03:55.039Z,31.33
2023-05-19T18:06:25.767Z,58.35
2023-05-19T18:09:12.962Z,43.40
2023-05-19T18:14:21.134Z,60.17
2023-05-19T18:16:54.545Z,54.20
2023-05-19T18:19:28.183Z,38.33
2023-05-19T18:22:03.414Z,30.13
2023-05-19T18:24:45.786Z,45.05
2023-05-19T18:27:12.870Z,41.50
2023-05-19T18:29:39.967Z,35.95
2023-05-19T18:32:08.373Z,33.50
2023-05-19T18:34:35.430Z,35.35
2023-05-19T18:37:02.243Z,32.72
2023-05-19T18:39:29.451Z,35.17
2023-05-19T18:41:56.323Z,31.48
2023-05-19T18:44:24.772Z,34.50
2023-05-19T18:46:51.569Z,35.70
2023-05-19T18:49:18.529Z,38.30
2023-05-19T18:51:48.674Z,35.83
2023-05-19T18:54:16.851Z,32.90
2023-05-19T18:56:43.551Z,41.08
2023-05-19T18:59:10.507Z,36.47
2023-05-19T19:01:37.356Z,34.97
2023-05-19T19:04:04.430Z,29.00
2023-05-19T19:06:31.262Z,37.63
2023-05-19T19:08:59.532Z,39.25
2023-05-19T19:11:26.441Z,55.03
2023-05-19T19:13:56.442Z,56.25
2023-05-19T19:16:24.612Z,60.72
2023-05-19T19:18:54.620Z,62.15
2023-05-19T19:21:24.052Z,50.08
2023-05-19T19:23:56.291Z,54.27
2023-05-19T19:26:25.343Z,57.28
2023-05-19T19:28:52.246Z,60.83
2023-05-19T19:31:19.040Z,52.20
2023-05-19T19:33:45.847Z,45.00
2023-05-19T19:36:12.871Z,53.40
2023-05-19T19:38:40.700Z,40.38
2023-05-19T19:41:07.492Z,40.72
2023-05-19T19:43:36.500Z,34.22
2023-05-19T19:46:04.537Z,34.90
2023-05-19T19:48:33.097Z,32.72
2023-05-19T19:51:00.112Z,36.97
2023-05-19T19:53:26.973Z,35.90
2023-05-19T19:56:01.436Z,38.10
2023-05-19T19:58:28.822Z,37.60
2023-05-19T20:00:59.333Z,37.78
2023-05-19T20:03:27.089Z,39.53
2023-05-19T20:05:55.809Z,39.85
2023-05-19T20:08:23.748Z,40.30
2023-05-19T20:10:51.031Z,41.55
2023-05-19T20:13:20.448Z,39.13
2023-05-19T20:15:47.745Z,41.10
2023-05-19T20:18:14.984Z,38.78
2023-05-19T20:20:42.489Z,43.15
2023-05-19T20:23:09.339Z,43.92
2023-05-19T20:25:57.841Z,40.20
2023-05-19T20:28:29.891Z,47.58
2023-05-19T20:30:56.667Z,49.53
2023-05-19T20:33:23.787Z,50.20
2023-05-19T20:35:50.601Z,53.10
2023-05-19T20:38:17.560Z,51.33
2023-05-19T20:40:44.363Z,54.88
2023-05-19T20:43:11.139Z,53.20
2023-05-19T20:45:38.097Z,52.53
2023-05-19T20:48:05.466Z,43.10
2023-05-19T20:50:35.422Z,37.25
2023-05-19T20:53:03.220Z,42.35
2023-05-19T20:55:31.973Z,37.40
2023-05-19T20:58:00.884Z,37.95
2023-05-19T21:00:29.661Z,39.40
2023-05-19T21:02:59.571Z,38.33
2023-05-19T21:05:26.394Z,38.67
2023-05-19T21:07:53.352Z,38.05
2023-05-19T21:10:21.773Z,45.00
2023-05-19T21:12:48.824Z,44.20
2023-05-19T21:15:16.758Z,46.13
2023-05-19T21:17:43.480Z,43.10
2023-05-19T21:20:12.806Z,41.45
2023-05-19T21:22:43.323Z,41.42
2023-05-19T21:25:10.231Z,33.65
2023-05-19T21:27:36.957Z,37.45
2023-05-19T21:30:04.083Z,34.88
2023-05-19T21:32:31.091Z,35.47
2023-05-19T21:34:57.845Z,35.53
2023-05-19T21:37:24.574Z,37.80
2023-05-19T21:39:51.620Z,37.35
2023-05-19T21:42:18.598Z,42.53
2023-05-19T21:44:45.750Z,83.88
2023-05-19T21:47:12.525Z,76.32
2023-05-19T21:49:40.230Z,42.85
2023-05-19T21:52:10.776Z,55.22
2023-05-19T21:54:37.513Z,56.72
2023-05-19T21:57:06.939Z,49.40
2023-05-19T21:59:33.654Z,45.90
2023-05-19T22:02:00.445Z,39.78
2023-05-19T22:04:35.436Z,37.97
2023-05-19T22:07:04.251Z,40.88
2023-05-19T22:09:31.555Z,38.63
2023-05-19T22:11:58.320Z,40.50
2023-05-19T22:14:26.246Z,37.75
2023-05-19T22:16:53.758Z,40.22
2023-05-19T22:19:21.361Z,38.10
2023-05-19T22:21:48.348Z,36.33
2023-05-19T22:24:18.503Z,37.90
2023-05-19T22:26:46.921Z,36.50
2023-05-19T22:29:16.458Z,38.03
2023-05-19T22:31:43.526Z,36.92
2023-05-19T22:34:15.397Z,35.53
2023-05-19T22:36:44.313Z,36.92
2023-05-19T22:39:12.393Z,37.85
2023-05-19T22:41:40.145Z,37.25
2023-05-19T22:44:07.010Z,37.28
2023-05-19T22:46:34.217Z,34.60
2023-05-19T22:49:01.502Z,34.42
2023-05-19T22:51:28.449Z,38.05
2023-05-19T22:53:55.303Z,32.60
2023-05-19T22:56:22.591Z,32.03
2023-05-19T22:58:49.400Z,31.60
2023-05-19T23:01:17.089Z,32.38
2023-05-19T23:03:44.532Z,34.35
2023-05-19T23:06:11.751Z,31.98
2023-05-19T23:08:38.975Z,34.65
2023-05-19T23:11:06.153Z,31.98
2023-05-19T23:13:33.636Z,34.00
2023-05-19T23:16:07.685Z,36.05
2023-05-19T23:18:43.671Z,35.13
2023-05-19T23:21:10.539Z,34.90
2023-05-19T23:23:46.696Z,34.17
2023-05-19T23:26:30.158Z,34.72
2023-05-19T23:28:59.537Z,34.50
2023-05-19T23:31:26.458Z,32.65
2023-05-19T23:33:54.246Z,35.10
2023-05-19T23:36:39.391Z,34.83
2023-05-19T23:39:11.687Z,34.95
2023-05-19T23:41:41.202Z,35.30
2023-05-19T23:44:10.257Z,36.60
2023-05-19T23:46:37.162Z,35.55
2023-05-19T23:49:04.154Z,37.72
2023-05-19T23:51:33.753Z,39.60
2023-05-19T23:54:09.721Z,39.00
2023-05-19T23:56:36.991Z,36.17
2023-05-19T23:59:05.634Z,38.90
